Time;durP1;ratioP1;P1;durP2;ratioP2;P2;SDS_P1;SDS_P2;PMS_P1;PMS_P2;Temp;Humidity;BMP_temperature;BMP_pressure;BME280_temperature;BME280_humidity;BME280_pressure;Samples;Min_cycle;Max_cycle;Signal;HPM_P1;HPM_P2
2021/03/28 00:02:07;;;;;;;0.93;0.32;;;;;;;12.50;40.41;100898.88;4480639;31;33663;-82
2021/03/28 00:05:06;;;;;;;1.23;0.45;;;;;;;12.71;39.10;100899.91;4491797;31;32881;-81
2021/03/28 00:07:45;;;;;;;1.98;0.68;;;;;;;12.70;38.96;100907.94;4478489;31;33636;-82
2021/03/28 00:10:37;;;;;;;0.77;0.50;;;;;;;12.51;39.39;100913.00;4488135;31;34401;-82
2021/03/28 00:13:13;;;;;;;4.90;0.52;;;;;;;12.63;38.56;100915.25;4486523;31;33604;-82
2021/03/28 00:16:00;;;;;;;1.17;0.52;;;;;;;12.55;38.62;100919.94;4480836;32;34057;-83
2021/03/28 00:19:10;;;;;;;1.25;0.60;;;;;;;12.60;38.35;100927.72;4490123;31;34153;-84
2021/03/28 00:21:51;;;;;;;3.08;0.65;;;;;;;12.54;38.19;100934.09;4491322;31;33337;-83
2021/03/28 00:24:34;;;;;;;0.98;0.60;;;;;;;12.56;38.51;100933.09;4489918;31;33723;-83
2021/03/28 00:27:09;;;;;;;2.90;0.45;;;;;;;12.61;37.53;100935.59;4473820;31;34062;-83
2021/03/28 00:29:50;;;;;;;1.15;0.50;;;;;;;12.65;37.17;100942.53;4490037;31;33522;-83
2021/03/28 00:32:57;;;;;;;1.00;0.50;;;;;;;12.57;37.58;100941.91;4473172;31;33316;-82
2021/03/28 00:35:44;;;;;;;2.12;0.60;;;;;;;12.72;36.73;100936.13;4467459;31;33770;-83
2021/03/28 00:38:22;;;;;;;1.15;0.60;;;;;;;12.55;37.08;100936.69;4488041;31;33120;-83
2021/03/28 00:41:21;;;;;;;2.55;0.75;;;;;;;12.32;38.07;100938.37;4472550;31;33445;-82
2021/03/28 00:43:50;;;;;;;1.58;0.50;;;;;;;11.87;38.63;100936.25;4490748;31;33456;-83
2021/03/28 00:47:00;;;;;;;2.62;0.70;;;;;;;12.36;37.13;100929.41;4489827;31;33095;-83
2021/03/28 00:49:38;;;;;;;0.95;0.43;;;;;;;12.57;36.57;100929.53;4493236;31;33731;-82
2021/03/28 00:52:10;;;;;;;0.80;0.73;;;;;;;12.47;36.77;100920.16;4480576;31;34340;-83
2021/03/28 00:54:51;;;;;;;0.50;0.40;;;;;;;12.67;36.17;100924.78;4481938;31;35312;-84
2021/03/28 00:57:19;;;;;;;1.27;0.50;;;;;;;12.72;36.24;100932.56;4482158;31;34774;-84
2021/03/28 01:00:10;;;;;;;0.40;0.40;;;;;;;12.60;36.42;100927.72;4490778;31;33836;-84
2021/03/28 01:03:05;;;;;;;0.62;0.25;;;;;;;12.45;37.27;100931.75;4495528;31;33246;-83
2021/03/28 01:05:47;;;;;;;2.42;0.65;;;;;;;12.80;36.35;100935.84;4477269;31;33552;-84
2021/03/28 01:08:19;;;;;;;2.20;1.02;;;;;;;12.91;35.91;100933.66;4489750;31;33316;-84
2021/03/28 01:11:08;;;;;;;2.12;0.80;;;;;;;12.85;36.21;100941.84;4477013;31;35006;-84
2021/03/28 01:13:41;;;;;;;0.80;0.50;;;;;;;12.81;36.32;100942.88;4492949;31;34043;-84
2021/03/28 01:16:15;;;;;;;2.40;0.80;;;;;;;12.86;36.30;100940.91;4489699;31;33240;-84
2021/03/28 01:19:01;;;;;;;2.95;0.50;;;;;;;12.19;38.30;100944.03;4493532;31;33162;-84
2021/03/28 01:21:43;;;;;;;2.17;0.70;;;;;;;12.56;36.94;100958.75;4488793;31;34246;-84
2021/03/28 01:24:13;;;;;;;2.40;0.57;;;;;;;12.84;36.19;100950.72;4475131;31;32707;-83
2021/03/28 01:27:06;;;;;;;1.08;0.60;;;;;;;12.53;36.92;100948.22;4497243;31;33701;-84
2021/03/28 01:29:43;;;;;;;1.25;0.62;;;;;;;12.21;37.97;100951.97;4489536;31;35323;-84
2021/03/28 01:32:30;;;;;;;0.98;0.60;;;;;;;12.44;37.51;100940.62;4494289;31;33225;-84
2021/03/28 01:35:15;;;;;;;0.93;0.40;;;;;;;12.38;38.15;100941.66;4496211;31;33730;-84
2021/03/28 01:37:55;;;;;;;2.72;0.82;;;;;;;12.54;37.89;100950.00;4491843;31;34727;-83
2021/03/28 01:40:37;;;;;;;1.05;0.85;;;;;;;12.83;37.14;100956.94;4481432;32;33711;-84
2021/03/28 01:43:24;;;;;;;3.12;0.70;;;;;;;12.12;39.41;100960.19;4495579;31;34163;-83
2021/03/28 01:46:41;;;;;;;4.93;0.77;;;;;;;12.21;39.26;100962.56;4478193;31;34272;-83
2021/03/28 01:49:36;;;;;;;2.30;0.70;;;;;;;12.65;38.20;100969.03;4470331;31;33667;-83
2021/03/28 01:52:16;;;;;;;6.97;1.15;;;;;;;12.26;39.99;100971.22;4493413;31;33542;-84
2021/03/28 01:55:16;;;;;;;1.02;0.60;;;;;;;12.21;40.49;100981.09;4496646;31;33435;-83
2021/03/28 01:58:08;;;;;;;1.95;0.85;;;;;;;12.30;40.35;100973.72;4464289;31;33640;-83
2021/03/28 02:00:38;;;;;;;;;;;;;;;12.46;40.33;100976.72;4496043;31;33814;-83
2021/03/28 02:03:26;;;;;;;1.77;0.93;;;;;;;12.36;40.79;100980.59;4478349;31;34013;-83
2021/03/28 02:06:04;;;;;;;1.40;0.80;;;;;;;12.40;40.84;100984.88;4466161;31;33465;-83
2021/03/28 02:08:54;;;;;;;2.87;1.12;;;;;;;12.38;41.06;100976.09;4477872;31;34599;-83
2021/03/28 02:11:50;;;;;;;1.77;0.88;;;;;;;12.47;40.75;100991.69;4479065;31;33813;-83
2021/03/28 02:14:33;;;;;;;2.05;0.75;;;;;;;12.57;40.76;100995.78;4475449;31;33985;-84
2021/03/28 02:17:39;;;;;;;1.70;0.68;;;;;;;12.52;41.08;100994.19;4468330;31;33322;-83
2021/03/28 02:20:55;;;;;;;2.15;0.80;;;;;;;12.14;41.86;101012.16;4493238;31;34400;-82
2021/03/28 02:23:50;;;;;;;4.80;2.25;;;;;;;12.09;42.25;101010.59;4490975;31;33410;-83
2021/03/28 02:26:23;;;;;;;1.70;1.00;;;;;;;12.37;41.44;101014.09;4493016;31;33747;-82
2021/03/28 02:29:06;;;;;;;1.40;0.80;;;;;;;12.36;41.51;101019.47;4484686;32;32830;-82
2021/03/28 02:31:45;;;;;;;2.67;1.10;;;;;;;12.02;42.48;101018.72;4476988;31;33641;-82
2021/03/28 02:34:15;;;;;;;1.35;0.82;;;;;;;12.12;42.22;101023.75;4476414;32;33542;-82
2021/03/28 02:36:56;;;;;;;2.15;1.20;;;;;;;11.98;42.67;101029.44;4492545;31;33651;-82
2021/03/28 02:39:50;;;;;;;1.10;0.80;;;;;;;11.58;43.67;101029.69;4480998;32;33153;-81
2021/03/28 02:42:32;;;;;;;3.95;1.45;;;;;;;11.86;42.90;101038.59;4475999;31;33319;-82
2021/03/28 02:45:06;;;;;;;1.98;1.40;;;;;;;11.73;43.20;101027.50;4492011;31;33515;-82
2021/03/28 02:47:52;;;;;;;3.67;1.23;;;;;;;11.77;43.14;101026.50;4489331;31;34793;-82
2021/03/28 02:50:50;;;;;;;2.62;1.10;;;;;;;11.40;44.15;101025.81;4496411;31;33330;-82
2021/03/28 02:53:20;;;;;;;2.35;0.90;;;;;;;11.46;43.65;101031.78;4478651;31;33692;-82
2021/03/28 02:56:26;;;;;;;5.05;1.08;;;;;;;11.56;43.61;101031.53;4476530;31;34508;-82
2021/03/28 02:59:09;;;;;;;2.08;1.12;;;;;;;11.36;43.90;101032.06;4487744;31;33774;-81
2021/03/28 03:01:42;;;;;;;4.20;1.42;;;;;;;11.43;43.82;101042.44;4490443;31;34588;-82
2021/03/28 03:04:57;;;;;;;3.10;1.35;;;;;;;11.28;44.30;101022.56;4490393;31;34405;-82
2021/03/28 03:07:36;;;;;;;2.87;1.52;;;;;;;10.95;45.05;101042.81;4487167;31;33610;-81
2021/03/28 03:10:14;;;;;;;3.25;1.12;;;;;;;11.09;44.22;101039.81;4480293;31;33735;-82
2021/03/28 03:12:54;;;;;;;3.70;1.48;;;;;;;11.07;43.81;101043.44;4485936;31;33677;-81
2021/03/28 03:15:43;;;;;;;2.92;1.40;;;;;;;11.19;42.99;101043.09;4476862;31;33104;-81
2021/03/28 03:18:29;;;;;;;3.17;1.08;;;;;;;11.12;42.81;101052.09;4481009;31;33427;-82
2021/03/28 03:21:31;;;;;;;2.97;1.52;;;;;;;11.07;42.86;101048.72;4475202;32;33666;-82
2021/03/28 03:24:20;;;;;;;2.10;0.98;;;;;;;11.12;42.28;101052.09;4463512;32;32753;-82
2021/03/28 03:27:09;;;;;;;2.17;1.75;;;;;;;10.80;43.42;101063.47;4459189;32;33311;-82
2021/03/28 03:29:50;;;;;;;1.75;1.20;;;;;;;11.04;42.06;101076.09;4464704;32;34488;-82
2021/03/28 03:32:29;;;;;;;1.85;0.93;;;;;;;10.76;44.38;101095.25;4449054;32;35389;-83
2021/03/28 03:35:12;;;;;;;2.72;1.17;;;;;;;10.63;44.14;101106.12;4451668;32;33255;-82
2021/03/28 03:38:12;;;;;;;2.62;1.37;;;;;;;10.88;42.85;101109.97;4474008;32;35573;-82
2021/03/28 03:41:03;;;;;;;1.20;0.70;;;;;;;10.94;42.36;101104.50;4454088;32;33433;-82
2021/03/28 03:43:36;;;;;;;1.55;1.00;;;;;;;11.06;41.39;101099.81;4460895;32;34886;-82
2021/03/28 03:46:18;;;;;;;4.60;1.10;;;;;;;10.78;42.21;101108.44;4477061;32;33100;-82
2021/03/28 03:49:02;;;;;;;2.03;1.00;;;;;;;10.71;42.97;101109.47;4460966;32;32653;-82
2021/03/28 03:51:39;;;;;;;4.03;1.70;;;;;;;11.06;42.13;101108.59;4434716;32;34671;-83
2021/03/28 03:54:14;;;;;;;2.47;1.80;;;;;;;10.90;42.21;101118.69;4463844;32;33775;-83
2021/03/28 03:56:44;;;;;;;2.03;1.25;;;;;;;10.97;41.94;101111.50;4447691;32;31941;-82
2021/03/28 03:59:49;;;;;;;3.62;0.85;;;;;;;10.92;41.73;101103.69;4470962;32;34570;-83
2021/03/28 04:02:25;;;;;;;2.90;1.23;;;;;;;10.93;41.79;101100.12;4460677;32;33261;-82
2021/03/28 04:05:04;;;;;;;1.30;1.00;;;;;;;10.81;42.11;101111.00;4448911;32;33220;-82
2021/03/28 04:08:03;;;;;;;2.20;1.00;;;;;;;10.51;43.06;101118.72;4471851;32;35178;-82
2021/03/28 04:10:53;;;;;;;2.75;0.90;;;;;;;10.71;42.43;101136.75;4477277;32;34589;-82
2021/03/28 04:13:44;;;;;;;6.82;1.75;;;;;;;10.86;42.17;101139.94;4467786;32;33487;-80
2021/03/28 04:16:28;;;;;;;1.12;0.82;;;;;;;10.59;42.58;101141.47;4463330;32;33608;-81
2021/03/28 04:19:22;;;;;;;2.03;0.98;;;;;;;10.68;41.78;101135.94;4457809;31;34916;-83
2021/03/28 04:22:22;;;;;;;1.60;0.85;;;;;;;10.50;42.19;101142.53;4477008;31;33358;-80
2021/03/28 04:25:43;;;;;;;4.45;1.35;;;;;;;10.43;42.51;101144.41;4489364;31;33904;-81
2021/03/28 04:28:46;;;;;;;3.35;1.35;;;;;;;10.32;42.99;101154.34;4444351;32;33754;-81
2021/03/28 04:31:36;;;;;;;4.10;1.30;;;;;;;9.97;43.95;101165.59;4488059;31;33112;-82
2021/03/28 04:34:19;;;;;;;1.33;0.93;;;;;;;10.26;42.95;101175.63;4463502;31;33394;-82
2021/03/28 04:36:49;;;;;;;;;;;;;;;10.39;42.73;101177.06;4477059;31;34774;-82
2021/03/28 04:39:22;;;;;;;3.62;1.70;;;;;;;9.98;43.62;101185.81;4483218;31;34118;-81
2021/03/28 04:41:52;;;;;;;3.55;1.55;;;;;;;10.15;43.33;101185.47;4488917;31;33415;-81
2021/03/28 04:44:33;;;;;;;2.17;1.20;;;;;;;10.06;43.46;101177.72;4492436;31;33370;-82
2021/03/28 04:47:38;;;;;;;3.47;1.27;;;;;;;9.76;44.32;101182.69;4472201;31;33611;-82
2021/03/28 04:50:24;;;;;;;5.32;1.17;;;;;;;10.02;43.66;101179.59;4490520;31;32992;-82
2021/03/28 04:53:33;;;;;;;8.18;1.48;;;;;;;10.20;43.86;101191.53;4492555;31;32600;-82
2021/03/28 04:56:12;;;;;;;1.70;0.80;;;;;;;10.37;42.54;101193.88;4434708;32;33328;-83
2021/03/28 04:58:39;;;;;;;3.70;1.08;;;;;;;9.99;43.75;101208.66;4409543;32;33199;-82
2021/03/28 05:01:38;;;;;;;1.73;1.00;;;;;;;10.15;43.10;101209.22;4462393;31;33705;-82
2021/03/28 05:04:14;;;;;;;7.18;0.82;;;;;;;9.30;45.24;101214.25;4489471;31;34207;-82
2021/03/28 05:07:12;;;;;;;3.40;1.15;;;;;;;9.63;44.98;101226.00;4485094;31;34421;-82
2021/03/28 05:10:07;;;;;;;1.45;0.90;;;;;;;9.55;44.88;101218.22;4490542;31;34554;-81
2021/03/28 05:13:06;;;;;;;4.55;0.80;;;;;;;9.90;43.98;101229.94;4488864;31;35484;-81
2021/03/28 05:16:03;;;;;;;2.65;0.73;;;;;;;10.08;43.16;101234.00;4490070;31;33118;-81
2021/03/28 05:19:07;;;;;;;1.08;0.70;;;;;;;10.02;43.48;101229.72;4489280;31;33609;-82
2021/03/28 05:21:54;;;;;;;2.90;0.70;;;;;;;9.60;44.52;101236.63;4478070;31;34779;-82
2021/03/28 05:24:28;;;;;;;1.37;0.68;;;;;;;9.93;43.57;101246.59;4475946;32;33088;-82
2021/03/28 05:27:15;;;;;;;1.33;0.80;;;;;;;10.05;43.34;101239.31;4491456;31;32888;-81
2021/03/28 05:30:20;;;;;;;2.00;0.55;;;;;;;10.27;42.88;101245.12;4476616;31;34286;-82
2021/03/28 05:33:03;;;;;;;3.00;0.75;;;;;;;10.42;42.62;101237.75;4474309;31;34665;-82
2021/03/28 05:35:50;;;;;;;2.65;1.00;;;;;;;10.11;43.58;101249.75;4487960;31;33680;-81
2021/03/28 05:38:34;;;;;;;5.00;1.17;;;;;;;10.43;41.69;101250.06;4477222;31;31880;-81
2021/03/28 05:41:34;;;;;;;2.35;0.82;;;;;;;10.45;41.93;101266.75;4478466;31;33734;-81
2021/03/28 05:44:07;;;;;;;3.12;0.93;;;;;;;9.87;44.10;101259.88;4487749;31;33674;-82
2021/03/28 05:46:35;;;;;;;0.85;0.60;;;;;;;9.98;43.26;101251.78;4479733;31;33222;-81
2021/03/28 05:49:29;;;;;;;1.95;1.15;;;;;;;10.10;43.30;101277.06;4491148;31;34876;-82
2021/03/28 05:52:30;;;;;;;2.85;0.80;;;;;;;10.13;42.84;101274.37;4487479;31;34895;-82
2021/03/28 05:55:32;;;;;;;3.12;1.12;;;;;;;9.91;43.80;101284.44;4488108;31;33487;-82
2021/03/28 05:58:18;;;;;;;1.23;0.70;;;;;;;9.87;43.90;101283.59;4481924;31;33647;-82
2021/03/28 06:01:04;;;;;;;2.83;0.80;;;;;;;10.23;42.52;101283.84;4495266;31;34424;-82
2021/03/28 06:04:03;;;;;;;1.40;0.80;;;;;;;10.14;42.90;101284.03;4488395;31;33432;-82
2021/03/28 06:06:57;;;;;;;2.00;0.80;;;;;;;9.94;44.25;101294.94;4492510;31;33663;-81
2021/03/28 06:09:56;;;;;;;1.87;0.60;;;;;;;10.14;43.22;101292.81;4486179;31;33001;-81
2021/03/28 06:12:41;;;;;;;1.98;0.80;;;;;;;10.10;43.02;101303.44;4476925;31;31568;-82
2021/03/28 06:15:11;;;;;;;2.20;0.88;;;;;;;10.21;43.59;101307.66;4488246;31;33281;-82
2021/03/28 06:17:57;;;;;;;1.23;0.85;;;;;;;10.54;42.32;101307.97;4490099;31;33499;-81
2021/03/28 06:20:29;;;;;;;2.05;1.00;;;;;;;10.20;43.66;101310.31;4490702;31;34483;-82
2021/03/28 06:23:23;;;;;;;2.28;0.60;;;;;;;10.28;42.43;101316.34;4478684;31;34070;-82
2021/03/28 06:26:01;;;;;;;0.88;0.62;;;;;;;10.14;42.90;101328.91;4491199;31;31862;-83
2021/03/28 06:28:47;;;;;;;3.97;1.48;;;;;;;10.37;42.43;101331.16;4486411;31;34243;-81
2021/03/28 06:31:40;;;;;;;3.10;1.42;;;;;;;10.56;41.90;101336.97;4492287;31;33294;-82
2021/03/28 06:34:29;;;;;;;2.40;1.08;;;;;;;10.34;42.70;101342.63;4488587;31;32902;-80
2021/03/28 06:37:16;;;;;;;1.62;0.95;;;;;;;10.27;42.53;101350.72;4490208;31;34395;-81
2021/03/28 06:40:00;;;;;;;1.80;0.50;;;;;;;10.21;42.13;101343.75;4489481;31;33233;-81
2021/03/28 06:42:49;;;;;;;2.28;0.95;;;;;;;10.18;42.20;101357.00;4486595;31;34357;-81
2021/03/28 06:45:42;;;;;;;4.03;1.05;;;;;;;9.92;43.89;101347.75;4491706;31;34038;-81
2021/03/28 06:48:47;;;;;;;2.12;0.77;;;;;;;10.33;41.70;101355.87;4493067;31;33278;-80
2021/03/28 06:51:53;;;;;;;1.40;0.55;;;;;;;10.16;41.86;101364.03;4493325;31;34006;-80
2021/03/28 06:54:51;;;;;;;2.75;0.70;;;;;;;10.30;42.13;101371.75;4474347;31;33563;-81
2021/03/28 06:57:56;;;;;;;5.97;0.77;;;;;;;10.22;42.06;101378.03;4480135;31;33102;-80
2021/03/28 07:00:56;;;;;;;4.93;0.60;;;;;;;10.34;40.76;101387.53;4490000;31;34564;-81
2021/03/28 07:03:26;;;;;;;2.67;1.02;;;;;;;10.72;39.71;101380.69;4424776;31;34633;-81
2021/03/28 07:05:59;;;;;;;3.92;0.80;;;;;;;10.58;40.24;101380.06;4489647;31;33579;-80
2021/03/28 07:09:14;;;;;;;2.60;1.02;;;;;;;10.79;39.92;101387.59;4492614;31;33398;-81
2021/03/28 07:11:51;;;;;;;0.90;0.50;;;;;;;10.70;39.92;101398.34;4487812;31;33595;-81
2021/03/28 07:14:28;;;;;;;2.47;0.68;;;;;;;10.18;40.25;101405.38;4478457;31;31915;-81
2021/03/28 07:17:24;;;;;;;1.17;0.70;;;;;;;10.33;40.13;101409.56;4491597;31;33642;-81
2021/03/28 07:19:54;;;;;;;2.05;0.95;;;;;;;9.99;40.79;101409.19;4492245;31;33236;-81
2021/03/28 07:22:45;;;;;;;2.67;0.80;;;;;;;10.15;40.74;101402.78;4491078;31;33429;-81
2021/03/28 07:25:27;;;;;;;3.53;1.30;;;;;;;10.48;41.07;101404.00;4478678;31;33653;-81
2021/03/28 07:28:17;;;;;;;5.25;2.03;;;;;;;10.70;41.67;101408.91;4477358;31;35613;-81
2021/03/28 07:31:25;;;;;;;3.37;0.75;;;;;;;10.79;41.13;101406.09;4488638;31;33879;-81
2021/03/28 07:34:07;;;;;;;3.45;0.93;;;;;;;11.05;40.56;101402.06;4488015;31;33653;-81
2021/03/28 07:36:43;;;;;;;2.40;0.95;;;;;;;11.30;38.62;101403.31;4489247;31;33527;-81
2021/03/28 07:39:46;;;;;;;2.08;0.80;;;;;;;11.14;39.92;101415.09;4488303;31;35582;-81
2021/03/28 07:42:29;;;;;;;1.12;0.65;;;;;;;11.07;39.28;101411.72;4489686;31;33082;-83
2021/03/28 07:45:28;;;;;;;2.03;0.77;;;;;;;11.61;38.66;101423.81;4490276;31;34561;-81
2021/03/28 07:47:55;;;;;;;3.75;0.80;;;;;;;11.67;37.12;101429.81;4487242;31;35978;-82
2021/03/28 07:50:48;;;;;;;0.85;0.70;;;;;;;11.39;38.76;101434.81;4493914;31;35192;-82
2021/03/28 07:53:18;;;;;;;;;;;;;;;11.51;37.82;101437.22;4474884;31;32834;-80
2021/03/28 07:56:37;;;;;;;4.18;1.77;;;;;;;11.80;37.23;101435.72;4488986;31;33168;-82
2021/03/28 07:59:36;;;;;;;3.97;1.45;;;;;;;12.02;37.36;101439.66;4493879;31;33557;-83
2021/03/28 08:02:35;;;;;;;2.20;1.20;;;;;;;12.24;37.42;101433.81;4476395;31;33617;-83
2021/03/28 08:05:28;;;;;;;1.70;0.50;;;;;;;12.66;35.77;101436.28;4461225;31;35121;-83
2021/03/28 08:08:17;;;;;;;2.28;0.73;;;;;;;12.85;35.52;101434.88;4487857;31;34681;-84
2021/03/28 08:11:23;;;;;;;0.98;0.62;;;;;;;12.93;34.97;101424.97;4492772;31;31665;-86
2021/03/28 08:14:24;;;;;;;1.77;1.00;;;;;;;12.89;35.03;101433.03;4488624;31;34584;-87
2021/03/28 08:17:30;;;;;;;1.90;0.77;;;;;;;13.19;34.82;101432.16;4477217;31;33546;-86
2021/03/28 08:20:16;;;;;;;1.75;0.60;;;;;;;13.40;33.67;101436.03;4487341;31;33898;-85
2021/03/28 08:23:19;;;;;;;3.83;0.60;;;;;;;13.53;32.72;101448.03;4470391;31;32980;-87
2021/03/28 08:25:48;;;;;;;1.05;0.70;;;;;;;13.29;29.41;101448.72;4476787;31;34258;-84
2021/03/28 08:28:30;;;;;;;5.30;0.40;;;;;;;13.03;30.30;101450.31;4474217;31;33190;-81
2021/03/28 08:31:08;;;;;;;3.05;1.00;;;;;;;13.09;30.46;101449.25;4487119;31;33638;-88
2021/03/28 08:34:00;;;;;;;3.00;0.50;;;;;;;12.90;32.83;101459.50;4487615;31;33783;-82
2021/03/28 08:36:57;;;;;;;0.95;0.70;;;;;;;12.95;34.20;101462.88;4484586;31;32922;-82
2021/03/28 08:39:27;;;;;;;2.35;0.43;;;;;;;13.21;34.25;101453.38;4457382;31;33524;-82
2021/03/28 08:42:06;;;;;;;1.70;0.90;;;;;;;13.27;33.63;101455.88;4489409;31;33739;-82
2021/03/28 08:45:26;;;;;;;2.12;0.73;;;;;;;13.88;32.03;101453.19;4484832;31;33292;-82
2021/03/28 08:47:59;;;;;;;3.35;1.12;;;;;;;13.94;29.40;101452.97;4411863;32;31696;-82
2021/03/28 08:50:36;;;;;;;1.87;0.70;;;;;;;13.94;29.29;101451.19;4476540;31;32938;-82
2021/03/28 08:53:19;;;;;;;3.53;0.90;;;;;;;13.41;30.64;101452.81;4485868;31;33505;-82
2021/03/28 08:55:52;;;;;;;2.97;0.88;;;;;;;13.75;28.51;101447.37;4477010;31;33743;-82
2021/03/28 08:58:22;;;;;;;2.62;0.68;;;;;;;13.76;28.36;101459.72;4472255;31;33337;-82
2021/03/28 09:00:50;;;;;;;1.60;0.70;;;;;;;13.36;28.63;101460.91;4484496;31;32924;-82
2021/03/28 09:03:36;;;;;;;1.75;0.68;;;;;;;13.28;30.32;101465.56;4483775;31;33884;-82
2021/03/28 09:06:14;;;;;;;4.50;0.70;;;;;;;13.58;28.77;101456.72;4487269;31;33479;-83
2021/03/28 09:09:10;;;;;;;1.95;0.80;;;;;;;13.62;28.93;101470.75;4488500;31;33102;-82
2021/03/28 09:11:42;;;;;;;4.18;0.85;;;;;;;13.61;29.35;101470.81;4478915;31;32871;-82
2021/03/28 09:14:26;;;;;;;2.55;0.80;;;;;;;13.29;29.97;101478.81;4485328;31;33479;-83
2021/03/28 09:16:59;;;;;;;1.50;0.70;;;;;;;13.35;31.62;101467.13;4488603;31;31701;-82
2021/03/28 09:19:48;;;;;;;3.15;0.55;;;;;;;13.75;28.29;101468.59;4476467;31;33125;-83
2021/03/28 09:22:41;;;;;;;2.50;0.70;;;;;;;13.44;29.48;101471.31;4478128;31;33560;-82
2021/03/28 09:25:30;;;;;;;1.67;0.70;;;;;;;13.11;28.71;101478.41;4493635;31;32891;-83
2021/03/28 09:28:22;;;;;;;2.75;0.62;;;;;;;13.04;29.00;101475.91;4474192;31;35735;-86
2021/03/28 09:31:27;;;;;;;1.35;0.80;;;;;;;12.71;30.32;101466.19;4488404;31;33621;-85
2021/03/28 09:34:34;;;;;;;2.45;0.90;;;;;;;12.89;29.42;101478.09;4476182;31;34636;-85
2021/03/28 09:37:20;;;;;;;1.15;0.60;;;;;;;12.89;28.09;101483.41;4492189;31;34506;-86
2021/03/28 09:40:03;;;;;;;1.75;0.55;;;;;;;12.83;27.04;101473.84;4477798;31;34552;-86
2021/03/28 09:43:21;;;;;;;1.17;0.68;;;;;;;12.95;28.28;101470.84;4488431;31;31770;-85
2021/03/28 09:45:55;;;;;;;3.08;0.70;;;;;;;12.67;28.52;101475.13;4482876;31;33024;-86
2021/03/28 09:48:34;;;;;;;4.03;0.68;;;;;;;12.44;27.67;101468.66;4488291;31;34614;-85
2021/03/28 09:51:33;;;;;;;2.28;0.93;;;;;;;12.80;26.64;101466.81;4474633;31;34228;-87
2021/03/28 09:54:25;;;;;;;1.27;0.73;;;;;;;12.73;27.05;101480.28;4478026;31;34117;-86
2021/03/28 09:56:56;;;;;;;;;;;;;;;12.86;26.73;101489.66;4478633;31;33163;-86
2021/03/28 09:59:37;;;;;;;2.75;0.75;;;;;;;12.71;26.39;101476.78;4492693;31;33821;-87
2021/03/28 10:02:07;;;;;;;1.55;0.62;;;;;;;12.88;26.98;101479.03;4475967;31;33730;-86
2021/03/28 10:04:38;;;;;;;3.25;0.65;;;;;;;12.55;27.71;101486.94;4487865;31;34449;-87
2021/03/28 10:07:06;;;;;;;2.87;0.70;;;;;;;12.68;27.18;101483.06;4487149;31;32937;-87
2021/03/28 10:09:55;;;;;;;2.30;0.82;;;;;;;12.71;27.62;101484.75;4474455;31;34092;-87
2021/03/28 10:12:31;;;;;;;1.70;0.55;;;;;;;12.97;26.59;101471.69;4477461;31;33506;-87
2021/03/28 10:15:03;;;;;;;1.25;0.50;;;;;;;13.25;26.52;101468.31;4485473;31;33019;-87
2021/03/28 10:17:57;;;;;;;2.53;1.07;;;;;;;13.30;25.52;101461.97;4477146;31;31193;-86
2021/03/28 10:20:37;;;;;;;2.10;0.65;;;;;;;13.36;25.84;101462.69;4469928;31;33635;-87
2021/03/28 10:23:39;;;;;;;4.43;0.70;;;;;;;13.14;26.63;101475.66;4487101;31;32816;-89
2021/03/28 10:26:45;;;;;;;3.33;0.60;;;;;;;13.47;25.29;101469.41;4477210;31;34812;-86
2021/03/28 10:29:44;;;;;;;1.65;0.60;;;;;;;13.64;24.93;101465.41;4488229;31;32914;-86
2021/03/28 10:32:43;;;;;;;0.95;0.50;;;;;;;13.66;25.31;101468.88;4491201;31;34541;-87
2021/03/28 10:35:30;;;;;;;1.87;1.05;;;;;;;13.33;26.42;101468.94;4491047;31;33475;-88
2021/03/28 10:38:26;;;;;;;1.73;0.65;;;;;;;13.31;26.00;101474.31;4489405;31;35598;-87
2021/03/28 10:41:31;;;;;;;4.30;0.75;;;;;;;13.54;25.96;101465.69;4489101;31;31186;-87
2021/03/28 10:44:31;;;;;;;0.45;0.40;;;;;;;13.54;25.60;101452.41;4493506;31;34685;-87
2021/03/28 10:47:17;;;;;;;1.10;0.50;;;;;;;13.24;26.08;101466.56;4475355;31;35491;-87
2021/03/28 10:50:01;;;;;;;2.05;1.00;;;;;;;13.80;27.57;101458.72;4490137;31;30898;-87
2021/03/28 10:52:54;;;;;;;2.03;0.70;;;;;;;14.09;26.85;101445.38;4487562;31;33950;-86
2021/03/28 10:55:36;;;;;;;1.73;0.70;;;;;;;14.62;26.22;101441.03;4479722;31;33817;-87
2021/03/28 10:58:37;;;;;;;1.50;0.73;;;;;;;14.28;25.22;101450.97;4489560;31;33694;-86
2021/03/28 11:01:14;;;;;;;2.72;0.85;;;;;;;14.56;23.73;101447.44;4487141;31;34051;-86
2021/03/28 11:04:03;;;;;;;5.03;0.82;;;;;;;14.71;25.10;101440.72;4486465;31;32901;-87
2021/03/28 11:06:50;;;;;;;1.40;0.62;;;;;;;14.81;24.27;101432.38;4477033;31;34534;-87
2021/03/28 11:09:43;;;;;;;2.15;0.80;;;;;;;14.90;24.05;101439.16;4489240;31;33388;-86
2021/03/28 11:12:20;;;;;;;2.15;0.70;;;;;;;15.16;23.15;101435.56;4484341;31;32453;-86
2021/03/28 11:14:52;;;;;;;3.47;0.70;;;;;;;15.31;23.21;101428.81;4488452;31;32750;-87
2021/03/28 11:17:42;;;;;;;1.90;0.93;;;;;;;15.13;23.25;101442.78;4467266;31;170682;-87
2021/03/28 11:20:34;;;;;;;1.95;0.60;;;;;;;14.91;24.18;101437.34;4473561;31;34675;-86
2021/03/28 11:23:09;;;;;;;5.30;1.12;;;;;;;15.30;23.37;101437.72;4482977;31;33614;-86
2021/03/28 11:25:58;;;;;;;3.35;1.15;;;;;;;15.30;23.70;101435.06;4494637;31;32845;-87
2021/03/28 11:28:30;;;;;;;3.95;1.00;;;;;;;15.33;24.16;101427.84;4499055;31;33393;-87
2021/03/28 11:31:08;;;;;;;2.00;0.52;;;;;;;15.54;23.99;101427.94;4477590;31;34136;-89
2021/03/28 11:33:39;;;;;;;3.37;0.57;;;;;;;15.46;22.96;101433.53;4483273;31;33910;-88
2021/03/28 11:36:20;;;;;;;2.80;1.00;;;;;;;15.74;22.41;101419.19;4481135;31;33922;-87
2021/03/28 11:39:12;;;;;;;2.53;0.70;;;;;;;15.67;23.13;101428.38;4475824;31;33383;-86
2021/03/28 11:41:45;;;;;;;2.43;0.90;;;;;;;15.68;23.39;101427.44;4464558;31;35526;-86
2021/03/28 11:44:28;;;;;;;1.70;0.65;;;;;;;15.69;23.39;101423.84;4472700;31;33649;-87
2021/03/28 11:47:01;;;;;;;1.45;0.50;;;;;;;15.92;23.05;101415.81;4488748;31;33644;-86
2021/03/28 11:49:46;;;;;;;2.35;0.60;;;;;;;15.91;20.25;101416.75;4467246;31;35608;-87
2021/03/28 11:52:18;;;;;;;5.90;1.30;;;;;;;15.82;21.23;101419.78;4474513;31;33727;-87
2021/03/28 11:55:09;;;;;;;1.27;0.60;;;;;;;16.23;21.54;101412.75;4476803;31;34182;-87
2021/03/28 11:57:37;;;;;;;3.58;0.50;;;;;;;15.76;21.59;101412.00;4477025;31;33972;-87
2021/03/28 12:00:39;;;;;;;1.10;0.45;;;;;;;15.83;22.20;101410.84;4473456;31;32628;-87
2021/03/28 12:03:19;;;;;;;1.12;0.70;;;;;;;16.02;21.00;101387.00;4473585;31;35624;-86
2021/03/28 12:05:55;;;;;;;1.15;0.90;;;;;;;15.99;20.42;101385.31;4484476;31;35170;-87
2021/03/28 12:08:56;;;;;;;4.10;0.60;;;;;;;15.99;20.84;101387.97;4490926;31;32798;-87
2021/03/28 12:11:38;;;;;;;1.15;0.80;;;;;;;16.04;21.44;101383.31;4472223;31;34288;-86
2021/03/28 12:14:12;;;;;;;2.30;0.73;;;;;;;16.29;21.71;101387.66;4487410;31;32448;-86
2021/03/28 12:17:10;;;;;;;2.35;0.73;;;;;;;16.58;20.98;101379.28;4476526;31;32650;-87
2021/03/28 12:20:06;;;;;;;2.87;0.90;;;;;;;16.32;21.74;101384.84;4479698;31;33024;-87
2021/03/28 12:22:42;;;;;;;1.67;0.60;;;;;;;16.56;20.65;101367.78;4487841;31;35617;-87
2021/03/28 12:25:13;;;;;;;3.42;0.70;;;;;;;16.42;21.37;101371.97;4486735;31;30891;-86
2021/03/28 12:27:56;;;;;;;1.62;0.68;;;;;;;16.68;21.67;101354.88;4485201;31;34892;-86
2021/03/28 12:30:28;;;;;;;1.98;0.80;;;;;;;17.06;20.65;101354.03;4491043;31;32885;-86
2021/03/28 12:33:06;;;;;;;2.55;0.70;;;;;;;17.21;20.42;101349.78;4484618;31;34591;-86
2021/03/28 12:35:40;;;;;;;2.97;0.73;;;;;;;16.96;21.67;101351.87;4490061;31;34976;-86
2021/03/28 12:38:25;;;;;;;3.15;0.68;;;;;;;16.57;22.07;101353.53;4477587;31;35047;-86
2021/03/28 12:41:11;;;;;;;2.30;0.60;;;;;;;16.84;20.07;101350.59;4477997;31;34900;-86
2021/03/28 12:43:48;;;;;;;2.28;0.70;;;;;;;16.97;21.19;101349.13;4494337;31;33428;-86
2021/03/28 12:46:47;;;;;;;2.40;0.60;;;;;;;17.31;19.66;101344.88;4478971;31;35006;-87
2021/03/28 12:49:24;;;;;;;1.12;0.60;;;;;;;17.43;19.69;101344.31;4464673;31;33891;-86
2021/03/28 12:52:19;;;;;;;2.17;1.23;;;;;;;17.45;20.16;101347.75;4488346;31;32906;-86
2021/03/28 12:54:50;;;;;;;2.45;0.68;;;;;;;17.51;20.64;101342.13;4485265;31;33482;-86
2021/03/28 12:57:52;;;;;;;2.70;0.90;;;;;;;17.47;20.99;101340.56;4479586;31;32856;-86